Time;durP1;ratioP1;P1;durP2;ratioP2;P2;SDS_P1;SDS_P2;PMS_P1;PMS_P2;Temp;Humidity;BMP_temperature;BMP_pressure;BME280_temperature;BME280_humidity;BME280_pressure;Samples;Min_cycle;Max_cycle;Signal;HPM_P1;HPM_P2
2023/08/02 00:01:25;;;;;;;;;;;;;;;27.35;45.89;98775.56;5050493;28;19955;-78
2023/08/02 00:03:50;;;;;;;;;;;;;;;27.36;45.76;98774.44;5050426;28;19916;-78
2023/08/02 00:06:15;;;;;;;;;;;;;;;27.35;46.07;98777.47;5051935;28;20003;-78
2023/08/02 00:08:41;;;;;;;;;;;;;;;27.36;46.04;98777.16;5050539;28;19909;-78
2023/08/02 00:11:14;;;;;;;;;;;;;;;27.38;45.81;98779.56;5051603;28;19908;-78
2023/08/02 00:13:39;;;;;;;;;;;;;;;27.37;45.74;98778.78;5051569;28;19967;-78
2023/08/02 00:16:04;;;;;;;;;;;;;;;27.36;46.24;98770.94;5051544;28;19912;-77
2023/08/02 00:18:30;;;;;;;;;;;;;;;27.35;45.86;98772.84;5051677;28;19944;-78
2023/08/02 00:20:55;;;;;;;;;;;;;;;27.31;45.97;98776.47;5050345;28;19961;-78
2023/08/02 00:23:20;;;;;;;;;;;;;;;27.26;46.31;98769.28;5051521;28;19908;-78
2023/08/02 00:25:45;;;;;;;;;;;;;;;27.24;45.59;98776.91;5052121;28;19916;-77
2023/08/02 00:28:11;;;;;;;;;;;;;;;27.21;46.18;98763.97;5055292;28;19908;-79
2023/08/02 00:30:43;;;;;;;;;;;;;;;27.20;45.18;98768.59;5055578;28;19909;-78
2023/08/02 00:33:08;;;;;;;;;;;;;;;27.16;46.18;98766.78;5054183;28;19915;-78
2023/08/02 00:35:33;;;;;;;;;;;;;;;27.12;46.24;98768.50;5054027;28;20382;-78
2023/08/02 00:37:58;;;;;;;;;;;;;;;27.12;46.36;98768.50;5055295;28;19909;-77
2023/08/02 00:40:25;;;;;;;;;;;;;;;27.13;46.56;98767.41;5055269;28;19970;-77
2023/08/02 00:42:50;;;;;;;;;;;;;;;27.14;45.88;98772.53;5055228;28;19991;-78
2023/08/02 00:45:15;;;;;;;;;;;;;;;27.15;46.54;98766.00;5053879;28;19947;-77
2023/08/02 00:47:40;;;;;;;;;;;;;;;27.15;45.05;98762.47;5055228;28;19909;-78
2023/08/02 00:50:06;;;;;;;;;;;;;;;27.12;46.49;98766.59;5055050;28;19909;-77
2023/08/02 00:52:31;;;;;;;;;;;;;;;27.11;46.06;98770.41;5054896;28;20389;-77
2023/08/02 00:54:57;;;;;;;;;;;;;;;27.12;45.56;98761.19;5053639;28;19955;-77
2023/08/02 00:57:22;;;;;;;;;;;;;;;27.03;46.56;98770.34;5055157;28;20298;-78
2023/08/02 00:59:47;;;;;;;;;;;;;;;27.00;46.37;98766.34;5054858;28;19917;-78
2023/08/02 01:02:13;;;;;;;;;;;;;;;27.00;45.67;98774.47;5054825;28;19908;-78
2023/08/02 01:04:38;;;;;;;;;;;;;;;26.97;46.29;98771.53;5054744;28;19912;-78
2023/08/02 01:07:21;;;;;;;;;;;;;;;26.89;46.92;98773.84;5054547;28;20382;-78
2023/08/02 01:09:53;;;;;;;;;;;;;;;26.85;46.95;98778.28;5054993;28;19905;-79
2023/08/02 01:12:20;;;;;;;;;;;;;;;26.85;46.22;98782.88;5054918;28;20374;-78
2023/08/02 01:14:49;;;;;;;;;;;;;;;26.81;47.23;98776.47;5054667;28;20326;-78
2023/08/02 01:17:14;;;;;;;;;;;;;;;26.78;47.57;98774.38;5054644;28;20308;-78
2023/08/02 01:19:40;;;;;;;;;;;;;;;26.77;47.09;98775.47;5053121;28;19912;-78
2023/08/02 01:22:05;;;;;;;;;;;;;;;26.75;47.28;98781.16;5053032;28;19915;-76
2023/08/02 01:24:32;;;;;;;;;;;;;;;26.77;46.56;98781.69;5054506;28;20000;-77
2023/08/02 01:26:59;;;;;;;;;;;;;;;26.75;47.03;98777.66;5054624;28;19962;-79
2023/08/02 01:29:27;;;;;;;;;;;;;;;26.71;46.60;98776.66;5053072;28;20007;-77
2023/08/02 01:31:55;;;;;;;;;;;;;;;26.66;46.62;98780.28;5054464;28;19908;-77
2023/08/02 01:34:20;;;;;;;;;;;;;;;26.64;47.16;98774.34;5052909;28;20344;-79
2023/08/02 01:36:46;;;;;;;;;;;;;;;26.61;47.14;98777.66;5053440;28;19969;-78
2023/08/02 01:39:11;;;;;;;;;;;;;;;26.60;47.16;98776.88;5053963;28;20062;-78
2023/08/02 01:41:36;;;;;;;;;;;;;;;26.58;47.10;98778.28;5060541;28;19915;-78
2023/08/02 01:44:01;;;;;;;;;;;;;;;26.59;47.89;98782.59;5070281;28;19908;-78
2023/08/02 01:46:27;;;;;;;;;;;;;;;26.56;47.52;98783.97;5060153;28;19972;-78
2023/08/02 01:48:52;;;;;;;;;;;;;;;26.54;47.28;98788.91;5054847;28;19908;-77
2023/08/02 01:51:17;;;;;;;;;;;;;;;26.53;47.25;98792.72;5055005;28;19909;-77
2023/08/02 01:53:42;;;;;;;;;;;;;;;26.53;47.63;98787.28;5053941;28;19915;-78
2023/08/02 01:56:08;;;;;;;;;;;;;;;26.55;47.47;98797.81;5053918;28;20305;-78
2023/08/02 01:58:33;;;;;;;;;;;;;;;26.51;47.67;98789.50;5052355;28;20337;-78
2023/08/02 02:00:58;;;;;;;;;;;;;;;26.47;48.28;98793.91;5053985;28;19974;-78
2023/08/02 02:03:23;;;;;;;;;;;;;;;26.42;47.79;98796.72;5053749;28;19919;-78
2023/08/02 02:05:53;;;;;;;;;;;;;;;26.40;48.18;98801.63;5052381;28;20051;-78
2023/08/02 02:08:18;;;;;;;;;;;;;;;26.39;47.28;98804.63;5053433;28;19909;-78
2023/08/02 02:10:53;;;;;;;;;;;;;;;26.40;48.06;98811.66;5053441;28;20416;-78
2023/08/02 02:13:19;;;;;;;;;;;;;;;26.39;48.00;98812.75;5053442;28;20451;-78
2023/08/02 02:15:45;;;;;;;;;;;;;;;26.35;47.78;98814.47;5053431;28;19912;-79
2023/08/02 02:18:10;;;;;;;;;;;;;;;26.32;48.09;98807.72;5053427;28;19909;-78
2023/08/02 02:20:35;;;;;;;;;;;;;;;26.29;47.87;98814.53;5053336;28;19909;-78
2023/08/02 02:23:00;;;;;;;;;;;;;;;26.28;48.42;98809.41;5053471;28;19916;-78
2023/08/02 02:25:26;;;;;;;;;;;;;;;26.25;48.40;98807.28;5053318;28;19916;-78
2023/08/02 02:27:51;;;;;;;;;;;;;;;26.20;48.50;98816.31;5053207;28;19908;-77
2023/08/02 02:30:16;;;;;;;;;;;;;;;26.19;48.31;98820.13;5053163;28;19955;-77
2023/08/02 02:32:41;;;;;;;;;;;;;;;26.20;48.49;98826.34;5053205;28;19909;-77
2023/08/02 02:35:07;;;;;;;;;;;;;;;26.17;48.64;98825.03;5053298;28;19908;-76
2023/08/02 02:37:32;;;;;;;;;;;;;;;26.16;48.57;98831.53;5052973;28;19916;-78
2023/08/02 02:39:57;;;;;;;;;;;;;;;26.07;49.20;98827.09;5052800;28;19908;-78
2023/08/02 02:42:22;;;;;;;;;;;;;;;26.00;48.79;98830.16;5051584;28;20003;-78
2023/08/02 02:44:48;;;;;;;;;;;;;;;25.95;48.82;98835.66;5052710;28;19908;-78
2023/08/02 02:47:13;;;;;;;;;;;;;;;25.97;48.80;98830.75;5051520;28;19908;-78
2023/08/02 02:49:38;;;;;;;;;;;;;;;25.95;49.22;98835.66;5051680;28;20433;-78
2023/08/02 02:52:04;;;;;;;;;;;;;;;25.97;48.16;98849.69;5051385;28;19932;-78
2023/08/02 02:54:29;;;;;;;;;;;;;;;25.95;48.09;98847.28;5052644;28;19915;-79
2023/08/02 02:56:54;;;;;;;;;;;;;;;25.95;48.56;98844.56;5052719;28;19909;-78
2023/08/02 02:59:20;;;;;;;;;;;;;;;25.93;48.50;98838.66;5052343;28;20417;-77
2023/08/02 03:01:45;;;;;;;;;;;;;;;25.84;48.68;98840.44;5052622;28;19988;-77
2023/08/02 03:04:10;;;;;;;;;;;;;;;25.79;48.70;98845.13;5052564;28;20054;-77
2023/08/02 03:06:36;;;;;;;;;;;;;;;25.70;50.14;98839.56;5052305;28;19967;-77
2023/08/02 03:09:02;;;;;;;;;;;;;;;25.62;50.12;98840.22;5052461;28;20370;-77
2023/08/02 03:11:27;;;;;;;;;;;;;;;25.57;50.39;98840.28;5052284;28;19916;-78
2023/08/02 03:13:52;;;;;;;;;;;;;;;25.55;50.69;98842.47;5052329;28;20377;-77
2023/08/02 03:16:17;;;;;;;;;;;;;;;25.49;50.91;98838.25;5052400;28;19908;-78
2023/08/02 03:18:43;;;;;;;;;;;;;;;25.45;50.66;98846.13;5052184;28;19915;-78
2023/08/02 03:21:08;;;;;;;;;;;;;;;25.41;51.52;98837.00;5051037;28;20469;-77
2023/08/02 03:23:34;;;;;;;;;;;;;;;25.39;50.91;98843.81;5052282;28;19943;-77
2023/08/02 03:25:59;;;;;;;;;;;;;;;25.41;51.29;98845.13;5052132;28;19916;-79
2023/08/02 03:28:24;;;;;;;;;;;;;;;25.42;50.73;98837.81;5052158;28;19923;-78
2023/08/02 03:30:50;;;;;;;;;;;;;;;25.45;51.04;98851.53;5051959;28;20369;-78
2023/08/02 03:33:15;;;;;;;;;;;;;;;25.47;50.99;98848.53;5052016;28;19959;-78
2023/08/02 03:35:40;;;;;;;;;;;;;;;25.47;50.42;98843.16;5050744;28;20289;-78
2023/08/02 03:38:05;;;;;;;;;;;;;;;25.48;51.05;98844.75;5050760;28;19916;-78
2023/08/02 03:40:31;;;;;;;;;;;;;;;25.50;50.38;98840.66;5051946;28;19916;-79
2023/08/02 03:42:56;;;;;;;;;;;;;;;25.50;49.91;98837.16;5051834;28;20378;-79
2023/08/02 03:45:21;;;;;;;;;;;;;;;25.53;50.00;98839.28;5050680;28;19938;-78
2023/08/02 03:47:46;;;;;;;;;;;;;;;25.54;51.26;98841.69;5051966;28;19909;-79
2023/08/02 03:50:12;;;;;;;;;;;;;;;25.57;49.60;98845.69;5051723;28;20277;-77
2023/08/02 03:52:37;;;;;;;;;;;;;;;25.59;49.96;98840.78;5051647;28;19909;-78
2023/08/02 03:55:02;;;;;;;;;;;;;;;25.59;50.98;98851.63;5051519;28;20000;-79
2023/08/02 03:57:28;;;;;;;;;;;;;;;25.58;50.80;98856.22;5051634;28;19999;-78
2023/08/02 03:59:53;;;;;;;;;;;;;;;25.57;50.54;98851.09;5051196;28;19975;-76
2023/08/02 04:02:18;;;;;;;;;;;;;;;25.54;51.12;98855.19;5051570;28;20352;-78
2023/08/02 04:04:43;;;;;;;;;;;;;;;25.49;51.24;98855.25;5051564;28;19920;-78
2023/08/02 04:07:09;;;;;;;;;;;;;;;25.45;51.16;98853.44;5051597;28;19916;-78
2023/08/02 04:09:35;;;;;;;;;;;;;;;25.42;50.84;98854.03;5051589;28;19922;-78
2023/08/02 04:12:00;;;;;;;;;;;;;;;25.38;51.09;98859.22;5051503;28;19909;-77
2023/08/02 04:14:25;;;;;;;;;;;;;;;25.38;50.73;98853.81;5051552;28;19908;-78
2023/08/02 04:16:50;;;;;;;;;;;;;;;25.40;50.84;98854.31;5050179;28;19913;-78
2023/08/02 04:19:16;;;;;;;;;;;;;;;25.42;51.00;98857.53;5051314;28;19963;-77
2023/08/02 04:21:41;;;;;;;;;;;;;;;25.42;50.86;98859.44;5051633;28;19909;-78
2023/08/02 04:24:06;;;;;;;;;;;;;;;25.45;50.95;98864.25;5051434;28;20408;-79
2023/08/02 04:26:32;;;;;;;;;;;;;;;25.48;51.23;98869.88;5051267;28;19909;-78
2023/08/02 04:28:57;;;;;;;;;;;;;;;25.48;50.52;98863.66;5051371;28;19911;-76
2023/08/02 04:31:22;;;;;;;;;;;;;;;25.47;51.19;98862.88;5051329;28;20373;-78
2023/08/02 04:33:48;;;;;;;;;;;;;;;25.47;50.86;98857.47;5050280;28;19909;-78
2023/08/02 04:36:13;;;;;;;;;;;;;;;25.48;51.36;98859.06;5051141;28;19916;-78
2023/08/02 04:38:38;;;;;;;;;;;;;;;25.49;51.44;98857.97;5051033;28;20356;-78
2023/08/02 04:41:04;;;;;;;;;;;;;;;25.52;50.96;98862.78;5051234;28;19952;-77
2023/08/02 04:43:29;;;;;;;;;;;;;;;25.56;51.14;98860.31;5051141;28;19909;-78
2023/08/02 04:45:54;;;;;;;;;;;;;;;25.61;50.77;98857.53;5051321;28;19958;-79
2023/08/02 04:48:20;;;;;;;;;;;;;;;25.63;51.37;98861.53;5051256;28;19909;-78
2023/08/02 04:50:45;;;;;;;;;;;;;;;25.67;51.36;98855.59;5051224;28;19908;-77
2023/08/02 04:53:10;;;;;;;;;;;;;;;25.68;51.25;98860.69;5051190;28;20291;-77
2023/08/02 04:55:45;;;;;;;;;;;;;;;25.68;51.89;98854.47;5051264;28;19915;-78
2023/08/02 04:58:10;;;;;;;;;;;;;;;25.69;53.13;98865.00;5051077;28;19909;-78
2023/08/02 05:00:35;;;;;;;;;;;;;;;25.67;52.02;98861.78;5049715;28;20316;-77
2023/08/02 05:03:01;;;;;;;;;;;;;;;25.67;51.61;98859.09;5049664;28;20373;-79
2023/08/02 05:05:26;;;;;;;;;;;;;;;25.68;52.86;98866.09;5049881;28;19967;-78
2023/08/02 05:07:51;;;;;;;;;;;;;;;25.68;51.17;98860.69;5050883;28;19916;-78
2023/08/02 05:10:16;;;;;;;;;;;;;;;25.70;51.29;98855.81;5032968;28;19909;-77
2023/08/02 05:12:42;;;;;;;;;;;;;;;25.74;51.39;98856.81;5053515;28;19916;-78
2023/08/02 05:15:08;;;;;;;;;;;;;;;25.80;51.41;98860.25;5054756;28;19912;-78
2023/08/02 05:17:33;;;;;;;;;;;;;;;25.87;51.81;98858.78;5061758;28;19914;-79
2023/08/02 05:19:59;;;;;;;;;;;;;;;25.90;50.89;98855.47;5056694;28;19920;-79
2023/08/02 05:22:24;;;;;;;;;;;;;;;25.94;51.61;98855.69;5057422;28;19908;-78
2023/08/02 05:24:50;;;;;;;;;;;;;;;26.00;50.25;98864.53;5054846;28;20390;-78
2023/08/02 05:27:15;;;;;;;;;;;;;;;26.05;51.20;98859.88;5054903;28;19908;-78
2023/08/02 05:29:40;;;;;;;;;;;;;;;26.09;50.93;98863.59;5054348;28;19909;-78
2023/08/02 05:32:06;;;;;;;;;;;;;;;26.14;50.77;98862.69;5054183;28;19909;-78
2023/08/02 05:34:31;;;;;;;;;;;;;;;26.17;50.92;98867.50;5036424;28;19932;-78
2023/08/02 05:36:56;;;;;;;;;;;;;;;26.20;50.89;98875.84;5054436;28;19908;-78
2023/08/02 05:39:21;;;;;;;;;;;;;;;26.27;50.48;98878.16;5054079;28;19912;-79
2023/08/02 05:41:47;;;;;;;;;;;;;;;26.32;50.06;98878.06;5035983;28;20392;-78
2023/08/02 05:44:12;;;;;;;;;;;;;;;26.35;51.13;98874.00;5054005;28;19904;-78
2023/08/02 05:46:37;;;;;;;;;;;;;;;26.35;50.26;98876.72;5053979;28;19916;-78
2023/08/02 05:49:02;;;;;;;;;;;;;;;26.36;49.90;98870.19;5035930;28;19909;-78
2023/08/02 05:51:28;;;;;;;;;;;;;;;26.42;49.78;98869.00;5053816;28;20629;-78
2023/08/02 05:53:53;;;;;;;;;;;;;;;26.44;50.25;98874.91;5053731;28;20419;-78
2023/08/02 05:56:18;;;;;;;;;;;;;;;26.44;50.00;98873.03;5053809;28;19916;-78
2023/08/02 05:58:43;;;;;;;;;;;;;;;26.48;49.58;98870.50;5053545;28;19921;-77
2023/08/02 06:01:09;;;;;;;;;;;;;;;26.52;49.59;98869.63;5035587;28;19959;-78
2023/08/02 06:03:34;;;;;;;;;;;;;;;26.55;49.48;98877.13;5052355;28;19923;-78
2023/08/02 06:05:59;;;;;;;;;;;;;;;26.64;49.56;98876.44;5047875;28;19951;-78
2023/08/02 06:08:24;;;;;;;;;;;;;;;26.72;49.41;98870.34;5051366;28;20305;-78
2023/08/02 06:10:50;;;;;;;;;;;;;;;26.78;48.48;98867.25;5033772;28;19958;-78
2023/08/02 06:13:15;;;;;;;;;;;;;;;26.82;49.34;98875.59;5041310;28;19913;-78
2023/08/02 06:15:40;;;;;;;;;;;;;;;26.87;48.84;98878.19;5053442;28;20377;-79
2023/08/02 06:18:05;;;;;;;;;;;;;;;26.91;48.85;98884.63;5047366;28;20998;-78
2023/08/02 06:20:31;;;;;;;;;;;;;;;26.95;49.44;98880.19;5034508;28;19923;-78
2023/08/02 06:22:56;;;;;;;;;;;;;;;26.99;48.49;98886.66;5052744;28;19974;-77
2023/08/02 06:25:22;;;;;;;;;;;;;;;27.00;48.60;98882.84;5052031;28;19917;-78
2023/08/02 06:27:47;;;;;;;;;;;;;;;27.07;48.46;98882.44;5038029;28;20247;-78
2023/08/02 06:30:13;;;;;;;;;;;;;;;27.15;48.88;98874.41;5043635;28;19919;-76
2023/08/02 06:32:38;;;;;;;;;;;;;;;27.21;48.79;98877.81;5025603;28;20518;-79
2023/08/02 06:35:04;;;;;;;;;;;;;;;27.27;48.36;98876.59;5052259;28;20006;-78
2023/08/02 06:37:29;;;;;;;;;;;;;;;27.35;48.22;98875.88;5052831;28;20309;-77
2023/08/02 06:39:54;;;;;;;;;;;;;;;27.45;47.83;98878.34;5052114;28;19912;-78
2023/08/02 06:42:19;;;;;;;;;;;;;;;27.56;48.02;98876.25;5052779;28;19912;-78
2023/08/02 06:44:45;;;;;;;;;;;;;;;27.66;47.95;98888.81;5052748;28;20385;-78
2023/08/02 06:47:10;;;;;;;;;;;;;;;27.77;47.77;98880.13;5052741;28;20004;-78
2023/08/02 06:49:35;;;;;;;;;;;;;;;27.85;47.05;98890.25;5048057;28;20381;-79
2023/08/02 06:52:01;;;;;;;;;;;;;;;27.82;47.55;98890.06;5050563;28;20457;-77
2023/08/02 06:54:26;;;;;;;;;;;;;;;27.83;47.33;98905.22;5037495;28;19916;-78
2023/08/02 06:56:51;;;;;;;;;;;;;;;27.83;47.18;98899.78;5039834;28;19913;-78
2023/08/02 06:59:17;;;;;;;;;;;;;;;27.84;47.27;98896.78;5034487;28;19924;-79
2023/08/02 07:01:42;;;;;;;;;;;;;;;27.91;47.25;98884.69;5053024;28;20007;-79
2023/08/02 07:04:07;;;;;;;;;;;;;;;27.95;46.74;98881.06;5052527;28;19919;-79
2023/08/02 07:06:32;;;;;;;;;;;;;;;28.03;46.51;98880.31;5052805;28;19959;-78
2023/08/02 07:08:58;;;;;;;;;;;;;;;28.14;46.36;98873.53;5052627;28;19908;-76
2023/08/02 07:11:23;;;;;;;;;;;;;;;28.25;46.78;98859.75;5051768;28;19989;-76
2023/08/02 07:13:48;;;;;;;;;;;;;;;28.33;45.87;98867.16;5034458;28;19912;-77
2023/08/02 07:16:14;;;;;;;;;;;;;;;28.38;45.70;98865.09;5052247;28;19913;-78
2023/08/02 07:18:39;;;;;;;;;;;;;;;28.44;45.62;98869.28;5034011;28;19912;-79
2023/08/02 07:21:05;;;;;;;;;;;;;;;28.53;45.19;98866.59;5050929;28;19952;-77
2023/08/02 07:23:31;;;;;;;;;;;;;;;28.62;44.91;98859.28;5050674;28;19942;-78
2023/08/02 07:25:56;;;;;;;;;;;;;;;28.70;45.03;98863.16;5050166;28;20003;-76
2023/08/02 07:28:21;;;;;;;;;;;;;;;28.75;44.88;98857.59;5049628;28;19935;-78
2023/08/02 07:30:47;;;;;;;;;;;;;;;28.87;44.96;98865.16;5051910;28;19912;-76
2023/08/02 07:33:12;;;;;;;;;;;;;;;28.95;44.60;98859.75;5049264;28;19924;-76
2023/08/02 07:35:37;;;;;;;;;;;;;;;29.04;44.20;98865.25;5046101;28;20397;-77
2023/08/02 07:38:03;;;;;;;;;;;;;;;29.16;44.44;98861.91;5034048;28;20050;-78
2023/08/02 07:40:28;;;;;;;;;;;;;;;29.21;43.99;98861.75;5032406;28;19985;-78
2023/08/02 07:42:53;;;;;;;;;;;;;;;29.24;43.66;98856.50;5031456;28;19917;-76
2023/08/02 07:45:18;;;;;;;;;;;;;;;29.35;43.39;98846.91;5048580;28;19912;-77
2023/08/02 07:47:44;;;;;;;;;;;;;;;29.42;43.76;98851.88;5048498;28;19917;-76
2023/08/02 07:50:09;;;;;;;;;;;;;;;29.47;43.68;98846.31;5034127;28;20282;-79
2023/08/02 07:52:35;;;;;;;;;;;;;;;29.44;43.46;98857.03;5047069;28;19919;-76
2023/08/02 07:55:00;;;;;;;;;;;;;;;29.45;43.71;98853.97;5050187;28;20333;-78
2023/08/02 07:57:27;;;;;;;;;;;;;;;29.49;43.47;98860.38;5051404;28;19919;-77
2023/08/02 07:59:52;;;;;;;;;;;;;;;29.56;43.17;98859.91;5048097;28;19968;-79
2023/08/02 08:02:18;;;;;;;;;;;;;;;29.61;43.40;98854.31;5051644;28;20425;-78
2023/08/02 08:04:43;;;;;;;;;;;;;;;29.67;42.91;98848.38;5054934;28;19935;-78
2023/08/02 08:07:08;;;;;;;;;;;;;;;29.73;43.29;98847.13;5062669;28;19919;-78
2023/08/02 08:09:35;;;;;;;;;;;;;;;29.79;43.16;98846.97;5056986;28;19959;-79
2023/08/02 08:12:06;;;;;;;;;;;;;;;29.83;42.66;98847.94;5051788;28;19909;-78
2023/08/02 08:14:33;;;;;;;;;;;;;;;29.85;42.58;98853.84;5051603;28;19974;-76
2023/08/02 08:16:58;;;;;;;;;;;;;;;29.86;42.68;98858.16;5051684;28;19931;-77
2023/08/02 08:19:25;;;;;;;;;;;;;;;29.81;42.87;98855.59;5049870;28;19916;-78
2023/08/02 08:21:50;;;;;;;;;;;;;;;29.73;42.97;98863.47;5050831;28;19912;-77
2023/08/02 08:24:15;;;;;;;;;;;;;;;29.67;42.90;98875.59;5050258;28;19927;-76
2023/08/02 08:26:40;;;;;;;;;;;;;;;29.63;43.33;98868.41;5049460;28;19912;-77
2023/08/02 08:29:06;;;;;;;;;;;;;;;29.66;42.96;98873.19;5052555;28;20377;-78
2023/08/02 08:31:32;;;;;;;;;;;;;;;29.76;42.72;98875.63;5068747;28;19939;-77
2023/08/02 08:33:57;;;;;;;;;;;;;;;29.84;42.61;98869.38;5046951;28;19920;-77
2023/08/02 08:36:23;;;;;;;;;;;;;;;29.93;42.57;98872.09;5044370;28;19913;-77
2023/08/02 08:38:48;;;;;;;;;;;;;;;30.04;42.84;98865.22;5048530;28;19920;-77
2023/08/02 08:41:14;;;;;;;;;;;;;;;30.17;42.88;98871.59;5050035;28;20320;-79
2023/08/02 08:43:39;;;;;;;;;;;;;;;30.28;42.38;98867.41;5020710;28;19921;-77
2023/08/02 08:46:05;;;;;;;;;;;;;;;30.35;42.45;98863.06;5041638;28;19995;-77
2023/08/02 08:48:33;;;;;;;;;;;;;;;30.49;42.20;98867.53;5054267;28;19913;-78
2023/08/02 08:50:59;;;;;;;;;;;;;;;30.66;41.69;98868.31;5041408;28;19932;-78
2023/08/02 08:53:35;;;;;;;;;;;;;;;30.80;41.56;98872.72;5036082;28;19915;-78
2023/08/02 08:56:02;;;;;;;;;;;;;;;30.91;41.13;98865.78;5044184;28;20401;-77
2023/08/02 08:58:27;;;;;;;;;;;;;;;30.98;40.95;98858.69;5036254;28;20015;-76
2023/08/02 09:00:56;;;;;;;;;;;;;;;31.12;40.77;98863.91;5054229;28;19959;-77
2023/08/02 09:03:22;;;;;;;;;;;;;;;31.21;40.42;98861.97;5054759;28;19916;-76
2023/08/02 09:05:48;;;;;;;;;;;;;;;31.37;40.39;98861.38;5052495;28;19913;-77
2023/08/02 09:08:14;;;;;;;;;;;;;;;31.48;39.83;98855.19;5053262;28;19920;-77
2023/08/02 09:10:39;;;;;;;;;;;;;;;31.65;39.64;98856.19;5052386;28;19918;-78
2023/08/02 09:13:04;;;;;;;;;;;;;;;31.77;38.82;98851.63;5048560;28;19912;-77
2023/08/02 09:15:29;;;;;;;;;;;;;;;31.84;39.10;98846.41;5049524;28;19956;-78
2023/08/02 09:17:55;;;;;;;;;;;;;;;31.90;39.30;98847.00;5050700;28;19917;-77
2023/08/02 09:20:22;;;;;;;;;;;;;;;31.94;39.10;98847.94;5052828;28;19938;-78
2023/08/02 09:22:47;;;;;;;;;;;;;;;32.08;39.12;98836.72;5040754;28;19920;-77
2023/08/02 09:25:19;;;;;;;;;;;;;;;32.23;38.92;98841.56;5050727;28;19916;-77
2023/08/02 09:27:46;;;;;;;;;;;;;;;32.47;38.60;98840.81;5052077;28;20385;-78
2023/08/02 09:30:21;;;;;;;;;;;;;;;32.66;37.89;98835.59;5044947;28;19916;-78
2023/08/02 09:32:57;;;;;;;;;;;;;;;32.95;37.67;98836.56;5050766;28;19913;-75
2023/08/02 09:35:22;;;;;;;;;;;;;;;33.24;37.12;98830.81;5051313;28;19999;-76
2023/08/02 09:37:48;;;;;;;;;;;;;;;33.52;36.31;98835.59;5050240;28;19999;-76
2023/08/02 09:40:13;;;;;;;;;;;;;;;33.77;36.91;98837.09;5050384;28;19920;-78
2023/08/02 09:42:38;;;;;;;;;;;;;;;34.02;35.43;98832.31;5037110;28;19919;-77
2023/08/02 09:45:04;;;;;;;;;;;;;;;34.20;34.45;98827.34;5049250;28;19923;-77
2023/08/02 09:47:29;;;;;;;;;;;;;;;34.35;34.99;98834.81;5049880;28;19913;-77
2023/08/02 09:50:21;;;;;;;;;;;;;;;34.58;35.92;98829.50;5028333;28;19969;-78
2023/08/02 09:52:46;;;;;;;;;;;;;;;34.77;35.63;98818.59;5038607;28;20030;-78
2023/08/02 09:55:12;;;;;;;;;;;;;;;34.90;34.77;98822.06;5046987;28;19948;-78
2023/08/02 09:57:41;;;;;;;;;;;;;;;34.86;34.05;98821.19;5033222;28;19916;-78
2023/08/02 10:00:07;;;;;;;;;;;;;;;34.68;34.27;98813.28;5049803;28;19917;-77
2023/08/02 10:02:33;;;;;;;;;;;;;;;34.63;33.33;98810.03;5053539;28;20373;-77
2023/08/02 10:04:59;;;;;;;;;;;;;;;34.70;33.70;98802.78;5053545;28;20374;-77
2023/08/02 10:07:31;;;;;;;;;;;;;;;34.70;33.81;98797.28;5035337;28;19930;-78
2023/08/02 10:10:00;;;;;;;;;;;;;;;34.83;33.20;98794.47;5053466;28;19919;-78
2023/08/02 10:12:25;;;;;;;;;;;;;;;35.07;33.52;98790.72;5034159;28;19919;-77
2023/08/02 10:14:51;;;;;;;;;;;;;;;35.41;33.39;98794.59;5052827;28;19917;-77
2023/08/02 10:17:16;;;;;;;;;;;;;;;35.66;32.60;98788.44;5051666;28;20405;-77
2023/08/02 10:19:42;;;;;;;;;;;;;;;35.84;32.36;98790.78;5031628;28;19987;-77
2023/08/02 10:22:08;;;;;;;;;;;;;;;36.05;33.04;98784.88;5053078;28;19915;-76
2023/08/02 10:24:33;;;;;;;;;;;;;;;36.20;32.10;98778.47;5052850;28;19916;-77
2023/08/02 10:27:04;;;;;;;;;;;;;;;36.35;31.97;98785.03;5032952;28;19909;-76
2023/08/02 10:29:31;;;;;;;;;;;;;;;36.53;31.17;98786.13;5047765;28;19912;-78
2023/08/02 10:31:57;;;;;;;;;;;;;;;36.70;31.47;98780.09;5051726;28;19913;-76
2023/08/02 10:34:34;;;;;;;;;;;;;;;36.87;32.14;98776.84;5052590;28;19916;-78
2023/08/02 10:37:00;;;;;;;;;;;;;;;36.94;32.36;98776.16;5052559;28;19912;-77
2023/08/02 10:39:44;;;;;;;;;;;;;;;37.02;31.78;98774.28;5052837;28;19962;-77
2023/08/02 10:42:09;;;;;;;;;;;;;;;37.20;30.47;98778.09;5048051;28;20437;-78
2023/08/02 10:44:34;;;;;;;;;;;;;;;37.22;30.53;98762.78;5049802;28;19948;-77
2023/08/02 10:47:18;;;;;;;;;;;;;;;37.32;29.08;98766.88;5051278;28;20396;-78
2023/08/02 10:49:44;;;;;;;;;;;;;;;37.29;30.01;98764.09;5051992;28;19959;-77
2023/08/02 10:52:28;;;;;;;;;;;;;;;37.18;29.82;98761.97;5050987;28;19959;-77
2023/08/02 10:55:08;;;;;;;;;;;;;;;37.18;30.09;98758.41;5052025;28;19912;-76
2023/08/02 10:57:34;;;;;;;;;;;;;;;37.30;30.52;98749.16;5052346;28;19991;-77
2023/08/02 10:59:59;;;;;;;;;;;;;;;37.38;30.33;98750.81;5050566;28;20007;-77
2023/08/02 11:02:25;;;;;;;;;;;;;;;37.62;29.94;98749.50;5050555;28;19935;-77
2023/08/02 11:04:50;;;;;;;;;;;;;;;37.56;30.18;98740.00;5052376;28;19909;-76
2023/08/02 11:07:18;;;;;;;;;;;;;;;37.42;29.47;98732.38;5027401;28;19919;-77
2023/08/02 11:09:43;;;;;;;;;;;;;;;37.30;29.42;98729.88;5050637;28;19917;-77
2023/08/02 11:12:13;;;;;;;;;;;;;;;37.41;29.12;98725.28;5050256;28;19970;-77
2023/08/02 11:14:39;;;;;;;;;;;;;;;37.67;29.67;98722.41;5041981;28;19920;-78
2023/08/02 11:17:04;;;;;;;;;;;;;;;37.77;28.21;98718.19;5051253;28;19913;-77
2023/08/02 11:19:29;;;;;;;;;;;;;;;37.73;29.55;98720.13;5033556;28;19916;-77
2023/08/02 11:21:56;;;;;;;;;;;;;;;37.82;29.66;98724.16;5034367;28;19908;-77
2023/08/02 11:24:24;;;;;;;;;;;;;;;37.76;30.34;98713.88;5052257;28;19948;-77
2023/08/02 11:26:59;;;;;;;;;;;;;;;37.55;28.90;98714.41;5047395;28;20374;-76
2023/08/02 11:29:24;;;;;;;;;;;;;;;37.49;27.94;98716.72;5051009;28;20427;-76
2023/08/02 11:31:50;;;;;;;;;;;;;;;37.69;29.00;98717.34;5051429;28;19917;-75
2023/08/02 11:34:18;;;;;;;;;;;;;;;37.75;29.43;98718.56;5036739;28;19935;-77
2023/08/02 11:36:50;;;;;;;;;;;;;;;37.60;28.44;98711.31;5050748;28;19938;-77
2023/08/02 11:39:16;;;;;;;;;;;;;;;37.53;28.13;98698.25;5033845;28;19965;-78
2023/08/02 11:41:41;;;;;;;;;;;;;;;37.66;27.59;98704.28;5051660;28;19991;-78
2023/08/02 11:44:19;;;;;;;;;;;;;;;37.86;28.98;98702.16;5051071;28;20347;-78
2023/08/02 11:46:54;;;;;;;;;;;;;;;38.22;27.74;98705.25;5050811;28;19932;-77
2023/08/02 11:49:19;;;;;;;;;;;;;;;38.44;25.34;98702.25;5033905;28;20309;-78
2023/08/02 11:51:45;;;;;;;;;;;;;;;38.42;27.27;98707.34;5051684;28;19991;-75
2023/08/02 11:54:10;;;;;;;;;;;;;;;38.69;27.32;98704.44;5050091;28;20313;-77
2023/08/02 11:56:36;;;;;;;;;;;;;;;38.91;26.39;98706.13;5051245;28;19931;-77
2023/08/02 11:59:02;;;;;;;;;;;;;;;39.04;28.17;98701.84;5051332;28;19917;-78
2023/08/02 12:01:27;;;;;;;;;;;;;;;39.20;24.50;98701.53;5033703;28;19912;-77
2023/08/02 12:04:03;;;;;;;;;;;;;;;39.39;25.10;98694.88;5051440;28;19909;-77
2023/08/02 12:06:44;;;;;;;;;;;;;;;39.50;26.36;98692.97;5033498;28;19916;-78
2023/08/02 12:09:09;;;;;;;;;;;;;;;39.40;24.87;98688.97;5049017;28;19919;-77
2023/08/02 12:11:34;;;;;;;;;;;;;;;39.56;24.25;98691.41;5051536;28;19908;-76
2023/08/02 12:14:02;;;;;;;;;;;;;;;39.79;24.86;98690.25;5051579;28;19901;-78
2023/08/02 12:16:37;;;;;;;;;;;;;;;39.65;23.66;98691.03;5051650;28;19909;-78
2023/08/02 12:19:03;;;;;;;;;;;;;;;39.62;25.46;98691.81;5051388;28;20373;-78
2023/08/02 12:21:28;;;;;;;;;;;;;;;39.69;24.18;98681.56;5053604;28;19912;-77
2023/08/02 12:23:53;;;;;;;;;;;;;;;39.71;26.42;98686.69;5052852;28;19916;-78
2023/08/02 12:26:32;;;;;;;;;;;;;;;39.91;23.17;98684.31;5053488;28;19913;-77
2023/08/02 12:28:57;;;;;;;;;;;;;;;40.03;25.04;98678.44;5037223;28;19995;-78
2023/08/02 12:31:23;;;;;;;;;;;;;;;40.22;23.74;98672.50;5053605;28;20020;-77
2023/08/02 12:33:48;;;;;;;;;;;;;;;40.44;23.05;98678.03;5053972;28;19917;-77
2023/08/02 12:36:23;;;;;;;;;;;;;;;40.51;24.94;98678.81;5055249;28;20472;-77
2023/08/02 12:38:48;;;;;;;;;;;;;;;40.31;23.98;98678.41;5054293;28;20351;-77
2023/08/02 12:41:14;;;;;;;;;;;;;;;40.19;24.42;98687.13;5053856;28;19913;-77
2023/08/02 12:43:39;;;;;;;;;;;;;;;40.14;24.00;98690.31;5053921;28;20329;-78